• Join FlightAware (Why Join?)
  • Login
  • US Flag 
02:43AM EST


 

Airport Tracker/Info


-or-


 

Live Flight TrackerFlight Track Log ✈ N755HF ✈ 01-May-2012 ✈ KVSF - KCDW

Flight Track Log - Related Links

Times and Time Zones

All times are in EDT time to prevent confusion due to time zone crossing. See the N755HF flight status page for this flight to view local times or setup timezone preferences in your user account.

Time Position Orientation Groundspeed Altitude Reporting Facility
EDT Latitude Longitude Course Direction KTS MPH feet Rate Location/Type
03:52PM 43.2964 -72.6256 239° Southwest 269 310 4,600  Level Boston Center
03:53PM 43.2714 -72.6825 238° Southwest 233 268 6,100 1,500 Climbing Boston Center
03:54PM 43.2483 -72.7336 237° Southwest 185 213 7,700 1,620 Climbing Boston Center
03:55PM 43.2231 -72.7878 237° Southwest 172 198 9,400 1,620 Climbing Boston Center
03:56PM 43.1978 -72.8417 238° Southwest 167 192 11,000 1,620 Climbing Boston Center
03:57PM 43.1728 -72.8956 228° Southwest 167 192 12,700 1,680 Climbing Boston Center
03:58PM 43.1433 -72.9408 223° Southwest 167 192 14,400 1,440 Climbing Boston Center
03:59PM 43.1078 -72.9861 220° Southwest 162 186 15,600 720 Climbing Boston Center
04:00PM 43.0658 -73.0342 220° Southwest 184 212 15,900 180 Climbing Boston Center
04:01PM 43.0175 -73.0903 221° Southwest 212 244 16,000  Climbing Boston Center
04:02PM 42.9672 -73.1494 219° Southwest 236 272 16,000  Level Boston Center
04:03PM 42.9147 -73.2083 222° Southwest 242 278 16,000  Level Boston Center
04:04PM 42.8642 -73.2700 219° Southwest 242 278 16,000  Level Boston Center
04:05PM 42.8117 -73.3286 222° Southwest 242 278 16,000  Level Boston Center
04:06PM 42.7611 -73.3903 220° Southwest 242 278 16,000  Level Boston Center
04:07PM 42.7147 -73.4433 221° Southwest 242 278 16,000  Level Boston Center
04:08PM 42.6622 -73.5044 219° Southwest 242 278 16,000  Level Boston Center
04:09PM 42.6094 -73.5628 222° Southwest 242 278 16,000  Level Boston Center
04:10PM 42.5589 -73.6239 220° Southwest 242 278 16,000 -300 Level Boston Center
04:11PM 42.5061 -73.6850 220° Southwest 242 278 15,500 -540 Descending Boston Center
04:12PM 42.4511 -73.7486 220° Southwest 242 278 15,000 -300 Descending Boston Center
04:13PM 42.4006 -73.8064 220° Southwest 247 284 15,000  Level Boston Center
04:14PM 42.3478 -73.8672 220° Southwest 247 284 15,000  Level Boston Center
04:15PM 42.2928 -73.9306 220° Southwest 242 278 15,000  Level Boston Center
04:16PM 42.2461 -73.9828 220° Southwest 242 278 15,000  Level Boston Center
04:17PM 42.1889 -74.0486 220° Southwest 242 278 15,000  Level Boston Center
04:18PM 42.1422 -74.1006 220° Southwest 242 278 15,000  Level Boston Center
04:19PM 42.0892 -74.1606 219° Southwest 242 278 15,000  Level Boston Center
04:20PM 42.0300 -74.2261 221° Southwest 242 278 15,000  Level Boston Center
04:21PM 41.9833 -74.2806 219° Southwest 242 278 15,000 -240 Level Boston Center
04:22PM 41.9258 -74.3431 221° Southwest 242 278 14,600 -780 Descending Boston Center
04:23PM 41.8792 -74.3975 219° Southwest 247 284 13,500 -1,260 Descending Boston Center
04:24PM 41.8175 -74.4653 220° Southwest 252 290 12,100 -1,320 Descending Boston Center
04:25PM 41.7686 -74.5194 192° South 259 298 10,900 -1,440 Descending Boston Center
04:26PM 41.6889 -74.5417 188° South 254 292 9,300 -1,500 Descending Boston Center
04:27PM 41.6242 -74.5536 187° South 268 308 8,000 -1,320 Descending Boston Center
04:28PM 41.5425 -74.5675 189° South 268 308 6,700 -600 Descending Boston Center
04:30PM 41.3833 -74.6000 201° Southwest 242 278 6,100 -180 Descending New York TRACON
04:31PM 41.3167 -74.6333 151° Southeast 241 277 6,100 -540 Level New York TRACON
04:32PM 41.2500 -74.5833 153° Southeast 260 299 5,100 -900 Descending New York TRACON
04:33PM 41.2000 -74.5500 143° Southeast 255 293 4,300 -1,020 Descending New York TRACON
04:34PM 41.1333 -74.4833 153° Southeast 250 288 3,100 -600 Descending New York TRACON
04:35PM 41.0833 -74.4500 153° Southeast 212 244 3,100  Level New York TRACON
04:36PM 41.0333 -74.4167 143° Southeast 205 236 3,100 -180 Level New York TRACON
04:37PM 40.9833 -74.3667 153° Southeast 212 244 2,800 -660 Descending New York TRACON
04:38PM 40.9333 -74.3333 166° South 220 253 1,800 -480 Descending New York TRACON
04:39PM 40.8833 -74.3167 159° South 158 182 1,900 -300 Climbing New York TRACON
04:40PM 40.8500 -74.3000 159° South 130 150 1,200 -720 Descending New York TRACON